createdAt,value
2023-03-26T00:00:09.808Z,66.15
2023-03-26T00:02:21.083Z,66.38
2023-03-26T00:04:13.152Z,66.40
2023-03-26T00:06:09.128Z,66.38
2023-03-26T00:08:00.511Z,66.50
2023-03-26T00:09:52.382Z,66.61
2023-03-26T00:11:46.447Z,66.52
2023-03-26T00:13:38.950Z,66.78
2023-03-26T00:15:30.487Z,66.81
2023-03-26T00:17:22.114Z,66.83
2023-03-26T00:19:14.019Z,66.74
2023-03-26T00:21:06.516Z,66.67
2023-03-26T00:23:01.675Z,66.71
2023-03-26T00:24:53.330Z,66.73
2023-03-26T00:26:45.021Z,66.75
2023-03-26T00:28:38.402Z,66.91
2023-03-26T00:30:30.161Z,66.92
2023-03-26T00:32:22.814Z,67.00
2023-03-26T00:34:18.626Z,67.29
2023-03-26T00:36:14.867Z,67.31
2023-03-26T00:38:06.965Z,67.41
2023-03-26T00:40:04.711Z,67.46
2023-03-26T00:41:56.342Z,67.61
2023-03-26T00:43:49.291Z,67.73
2023-03-26T00:45:41.176Z,67.66
2023-03-26T00:47:33.908Z,67.90
2023-03-26T00:49:30.737Z,68.10
2023-03-26T00:51:22.481Z,68.23
2023-03-26T00:53:15.460Z,68.43
2023-03-26T00:55:07.616Z,68.61
2023-03-26T00:56:59.268Z,68.73
2023-03-26T00:58:51.092Z,68.93
2023-03-26T01:00:53.332Z,69.13
2023-03-26T01:02:45.688Z,69.28
2023-03-26T01:04:37.640Z,69.46
2023-03-26T01:06:36.723Z,69.33
2023-03-26T01:08:34.078Z,69.60
2023-03-26T01:10:25.976Z,69.77
2023-03-26T01:12:22.353Z,70.12
2023-03-26T01:14:21.680Z,70.17
2023-03-26T01:16:27.148Z,70.28
2023-03-26T01:18:21.794Z,70.32
2023-03-26T01:20:19.591Z,70.24
2023-03-26T01:22:19.291Z,70.35
2023-03-26T01:24:10.998Z,70.32
2023-03-26T01:26:12.670Z,70.07
2023-03-26T01:28:08.863Z,70.04
2023-03-26T01:30:21.456Z,69.97
2023-03-26T01:32:24.992Z,69.99
2023-03-26T01:34:37.444Z,70.04
2023-03-26T01:37:17.718Z,69.90
2023-03-26T01:39:19.814Z,69.97
2023-03-26T01:41:21.364Z,70.00
2023-03-26T01:43:30.084Z,69.88
2023-03-26T01:45:26.786Z,69.97
2023-03-26T01:47:18.945Z,69.92
2023-03-26T01:49:13.246Z,69.98
2023-03-26T01:51:06.347Z,70.14
2023-03-26T01:52:58.111Z,70.04
2023-03-26T01:54:50.315Z,69.99
2023-03-26T01:56:57.076Z,70.13
2023-03-26T01:59:01.126Z,70.21
2023-03-26T02:01:16.945Z,70.04
2023-03-26T02:03:18.037Z,70.05
2023-03-26T02:05:17.750Z,70.12
2023-03-26T02:07:15.157Z,69.99
2023-03-26T02:09:10.114Z,70.11
2023-03-26T02:11:11.733Z,70.10
2023-03-26T02:13:03.830Z,70.07
2023-03-26T02:14:55.559Z,69.96
2023-03-26T02:16:48.043Z,70.09
2023-03-26T02:18:41.954Z,70.30
2023-03-26T02:20:33.523Z,70.13
2023-03-26T02:22:30.168Z,70.15
2023-03-26T02:24:21.774Z,70.13
2023-03-26T02:26:17.236Z,70.13
2023-03-26T02:28:09.104Z,70.22
2023-03-26T02:30:01.151Z,70.16
2023-03-26T02:31:52.870Z,70.37
2023-03-26T02:33:44.810Z,70.38
2023-03-26T02:35:36.424Z,70.39
2023-03-26T02:37:30.597Z,70.34
2023-03-26T02:39:22.246Z,70.29
2023-03-26T02:41:14.451Z,70.40
2023-03-26T02:43:06.450Z,70.58
2023-03-26T02:44:58.153Z,70.59
2023-03-26T02:46:49.827Z,70.81
2023-03-26T02:48:41.653Z,70.77
2023-03-26T02:50:36.987Z,70.93
2023-03-26T02:52:28.839Z,70.87
2023-03-26T02:54:20.645Z,70.92
2023-03-26T02:56:12.713Z,70.94
2023-03-26T02:58:04.439Z,70.82
2023-03-26T02:59:55.773Z,70.94
2023-03-26T03:01:47.803Z,70.78
2023-03-26T03:03:39.682Z,70.59
2023-03-26T03:05:32.669Z,70.43
2023-03-26T03:07:26.225Z,70.33
2023-03-26T03:09:17.495Z,70.22
2023-03-26T03:11:12.151Z,69.95
2023-03-26T03:13:06.010Z,69.62
2023-03-26T03:14:57.408Z,69.66
2023-03-26T03:16:49.135Z,69.45
2023-03-26T03:18:40.634Z,69.29
2023-03-26T03:20:35.317Z,69.44
2023-03-26T03:22:27.139Z,69.53
2023-03-26T03:24:18.708Z,69.39
2023-03-26T03:26:16.359Z,69.29
2023-03-26T03:28:08.811Z,69.30
2023-03-26T03:30:00.827Z,69.24
2023-03-26T03:31:52.774Z,69.30
2023-03-26T03:33:46.258Z,69.32
2023-03-26T03:35:38.449Z,69.43
2023-03-26T03:37:30.192Z,69.46
2023-03-26T03:39:21.855Z,69.76
2023-03-26T03:41:13.754Z,70.14
2023-03-26T03:43:05.663Z,70.22
2023-03-26T03:44:57.444Z,70.13
2023-03-26T03:46:54.112Z,70.41
2023-03-26T03:48:50.030Z,70.47
2023-03-26T03:50:42.090Z,70.33
2023-03-26T03:52:33.715Z,70.02
2023-03-26T03:54:25.900Z,69.90
2023-03-26T03:56:19.319Z,69.59
2023-03-26T03:58:12.108Z,69.26
2023-03-26T04:00:06.741Z,68.94
2023-03-26T04:01:58.502Z,68.34
2023-03-26T04:03:50.785Z,68.24
2023-03-26T04:05:43.850Z,67.76
2023-03-26T04:07:35.762Z,67.19
2023-03-26T04:09:27.291Z,66.57
2023-03-26T04:11:19.182Z,65.58
2023-03-26T04:13:12.523Z,65.80
2023-03-26T04:15:04.597Z,65.71
2023-03-26T04:16:56.210Z,65.34
2023-03-26T04:18:48.056Z,65.31
2023-03-26T04:20:46.890Z,65.54
2023-03-26T04:22:39.524Z,65.98
2023-03-26T04:24:38.411Z,65.41
2023-03-26T04:26:31.066Z,65.45
2023-03-26T04:28:34.027Z,65.33
2023-03-26T04:30:25.558Z,65.50
2023-03-26T04:32:26.835Z,65.34
2023-03-26T04:34:24.399Z,65.47
2023-03-26T04:36:16.880Z,65.38
2023-03-26T04:38:10.875Z,65.54
2023-03-26T04:40:10.960Z,65.80
2023-03-26T04:42:02.827Z,66.09
2023-03-26T04:43:55.459Z,66.33
2023-03-26T04:45:48.104Z,66.47
2023-03-26T04:47:40.004Z,66.46
2023-03-26T04:49:31.955Z,66.88
2023-03-26T04:51:27.212Z,67.24
2023-03-26T04:53:21.447Z,67.79
2023-03-26T04:55:21.730Z,67.96
2023-03-26T04:57:24.181Z,68.26
2023-03-26T04:59:19.712Z,68.35
2023-03-26T05:01:11.637Z,68.79
2023-03-26T05:03:03.235Z,68.93
2023-03-26T05:04:57.270Z,69.08
2023-03-26T05:06:49.178Z,69.17
2023-03-26T05:08:42.008Z,69.07
2023-03-26T05:10:33.730Z,69.14
2023-03-26T05:12:25.576Z,69.30
2023-03-26T05:14:18.056Z,69.23
2023-03-26T05:16:11.245Z,69.48
2023-03-26T05:18:02.944Z,69.27
2023-03-26T05:19:54.486Z,69.32
2023-03-26T05:21:46.359Z,69.36
2023-03-26T05:23:38.027Z,69.24
2023-03-26T05:25:29.868Z,69.15
2023-03-26T05:27:21.948Z,69.09
2023-03-26T05:29:14.994Z,68.98
2023-03-26T05:31:08.264Z,69.22
2023-03-26T05:32:59.930Z,69.38
2023-03-26T05:34:51.739Z,69.34
2023-03-26T05:36:44.116Z,69.50
2023-03-26T05:38:36.101Z,69.51
2023-03-26T05:40:27.746Z,69.71
2023-03-26T05:42:19.714Z,69.48
2023-03-26T05:44:11.665Z,69.67
2023-03-26T05:46:03.942Z,69.91
2023-03-26T05:47:56.705Z,69.66
2023-03-26T05:49:48.282Z,69.83
2023-03-26T05:51:39.485Z,69.73
2023-03-26T05:53:32.232Z,69.69
2023-03-26T05:55:23.846Z,69.85
2023-03-26T05:57:15.670Z,69.93
2023-03-26T05:59:08.110Z,69.90
2023-03-26T06:01:11.023Z,69.66
2023-03-26T06:03:02.754Z,69.64
2023-03-26T06:04:54.720Z,69.75
2023-03-26T06:06:46.999Z,69.83
2023-03-26T06:08:39.528Z,69.90
2023-03-26T06:10:31.536Z,69.74
2023-03-26T06:12:23.556Z,69.93
2023-03-26T06:14:15.454Z,69.53
2023-03-26T06:16:09.139Z,69.56
2023-03-26T06:18:18.867Z,69.37
2023-03-26T06:20:11.312Z,69.02
2023-03-26T06:22:03.184Z,68.97
2023-03-26T06:23:55.748Z,69.05
2023-03-26T06:25:47.921Z,69.04
2023-03-26T06:27:39.394Z,68.78
2023-03-26T06:29:31.435Z,68.87
2023-03-26T06:31:23.281Z,68.80
2023-03-26T06:33:15.522Z,68.65
2023-03-26T06:35:07.495Z,68.69
2023-03-26T06:36:59.315Z,68.40
2023-03-26T06:38:50.806Z,68.36
2023-03-26T06:40:42.695Z,68.15
2023-03-26T06:43:07.946Z,67.91
2023-03-26T06:44:46.279Z,67.51
2023-03-26T06:46:39.134Z,67.50
2023-03-26T06:48:31.072Z,66.84
2023-03-26T06:50:22.597Z,67.08
2023-03-26T06:52:14.466Z,66.71
2023-03-26T06:54:06.794Z,66.56
2023-03-26T06:55:58.676Z,66.13
2023-03-26T06:57:51.504Z,66.27
2023-03-26T06:59:43.110Z,66.10
2023-03-26T07:01:35.013Z,65.95
2023-03-26T07:03:26.875Z,65.63
2023-03-26T07:05:18.676Z,65.41
2023-03-26T07:07:10.505Z,65.16
2023-03-26T07:09:02.330Z,65.41
2023-03-26T07:10:54.482Z,64.71
2023-03-26T07:12:46.508Z,64.47
2023-03-26T07:14:38.844Z,63.77
2023-03-26T07:16:30.934Z,63.86
2023-03-26T07:18:22.738Z,63.75
2023-03-26T07:20:26.004Z,63.46
2023-03-26T07:22:23.559Z,63.58
2023-03-26T07:24:16.917Z,64.23
2023-03-26T07:26:33.558Z,65.16
2023-03-26T07:28:43.740Z,65.48
2023-03-26T07:31:27.644Z,66.52
2023-03-26T07:33:36.611Z,65.75
2023-03-26T07:35:41.190Z,65.74
2023-03-26T07:37:47.815Z,66.05
2023-03-26T07:39:57.922Z,65.23
2023-03-26T07:41:49.613Z,64.16
2023-03-26T07:44:12.084Z,64.28
2023-03-26T07:46:04.255Z,64.16
2023-03-26T07:47:57.098Z,63.31
2023-03-26T07:49:49.285Z,62.13
2023-03-26T07:51:41.518Z,62.66
2023-03-26T07:53:33.557Z,62.23
2023-03-26T07:55:25.642Z,62.40
2023-03-26T07:57:39.024Z,62.48
2023-03-26T07:59:53.495Z,63.01
2023-03-26T08:01:51.744Z,63.41
2023-03-26T08:03:51.127Z,62.82
2023-03-26T08:06:06.020Z,63.72
2023-03-26T08:08:08.693Z,65.04
2023-03-26T08:10:22.167Z,65.31
2023-03-26T08:12:43.043Z,64.37
2023-03-26T08:15:01.955Z,63.87
2023-03-26T08:17:02.516Z,63.99
2023-03-26T08:19:08.087Z,64.54
2023-03-26T08:21:08.167Z,64.90
2023-03-26T08:23:09.557Z,63.72
2023-03-26T08:25:27.692Z,63.04
2023-03-26T08:27:38.442Z,63.54
2023-03-26T08:29:45.357Z,63.03
2023-03-26T08:31:40.584Z,63.09
2023-03-26T08:33:32.614Z,63.46
2023-03-26T08:35:25.580Z,63.78
2023-03-26T08:37:17.494Z,63.75
2023-03-26T08:39:09.464Z,64.03
2023-03-26T08:41:14.940Z,64.24
2023-03-26T08:43:22.909Z,61.49
2023-03-26T08:45:44.176Z,61.17
2023-03-26T08:47:48.648Z,59.06
2023-03-26T08:49:51.547Z,58.29
2023-03-26T08:52:24.624Z,57.77
2023-03-26T08:54:25.666Z,57.66
2023-03-26T08:56:33.085Z,54.56
2023-03-26T08:59:02.121Z,54.19
2023-03-26T09:01:12.414Z,53.39
2023-03-26T09:03:32.118Z,54.34
2023-03-26T09:05:50.975Z,52.50
2023-03-26T09:08:24.100Z,52.06
2023-03-26T09:10:30.896Z,52.70
2023-03-26T09:12:47.176Z,53.15
2023-03-26T09:18:17.595Z,60.03
2023-03-26T09:20:33.213Z,61.13
2023-03-26T09:22:45.693Z,62.79
2023-03-26T09:25:22.131Z,64.14
2023-03-26T09:27:47.100Z,65.98
2023-03-26T09:30:14.177Z,66.59
2023-03-26T09:32:27.467Z,67.72
2023-03-26T09:34:28.334Z,67.81
2023-03-26T09:36:27.395Z,66.73
2023-03-26T09:38:40.554Z,67.28
2023-03-26T09:40:38.848Z,65.82
2023-03-26T09:42:42.306Z,64.41
2023-03-26T09:44:51.750Z,63.27
2023-03-26T09:47:14.327Z,62.95
2023-03-26T09:49:22.895Z,64.38
2023-03-26T09:51:41.737Z,64.55
2023-03-26T09:54:06.970Z,65.19
2023-03-26T09:56:16.718Z,64.51
2023-03-26T09:58:11.645Z,64.26
2023-03-26T10:00:41.449Z,63.56
2023-03-26T10:02:45.520Z,62.77
2023-03-26T10:04:45.099Z,62.23
2023-03-26T10:06:58.147Z,61.93
2023-03-26T10:08:58.356Z,60.02
2023-03-26T10:10:54.840Z,60.42
2023-03-26T10:12:51.140Z,59.20
2023-03-26T10:15:11.957Z,58.86
2023-03-26T10:17:05.136Z,58.38
2023-03-26T10:19:18.915Z,57.88
2023-03-26T10:21:48.420Z,56.12
2023-03-26T10:23:58.334Z,51.71
2023-03-26T10:26:08.517Z,51.11
2023-03-26T10:28:08.797Z,50.84
2023-03-26T10:30:20.651Z,50.94
2023-03-26T10:32:44.473Z,49.05
2023-03-26T10:34:51.866Z,48.19
2023-03-26T10:37:05.955Z,50.48
2023-03-26T10:39:42.406Z,49.33
2023-03-26T10:41:59.401Z,49.90
2023-03-26T10:44:01.268Z,50.25
2023-03-26T10:46:26.771Z,52.25
2023-03-26T10:48:33.063Z,56.81
2023-03-26T10:50:50.575Z,59.52
2023-03-26T10:52:59.849Z,60.63
2023-03-26T10:55:27.524Z,61.97
2023-03-26T10:57:36.557Z,59.43
2023-03-26T10:59:29.113Z,55.18
2023-03-26T11:01:32.853Z,56.59
2023-03-26T11:03:41.828Z,55.10
2023-03-26T11:05:47.114Z,53.30
2023-03-26T11:07:51.886Z,53.32
2023-03-26T11:09:54.503Z,51.33
2023-03-26T11:12:26.494Z,49.72
2023-03-26T11:15:02.770Z,49.46
2023-03-26T11:17:02.444Z,48.48
2023-03-26T11:19:05.069Z,46.07
2023-03-26T11:21:19.090Z,47.53
2023-03-26T11:23:27.000Z,47.54
2023-03-26T11:25:41.942Z,46.91
2023-03-26T11:27:51.799Z,46.96
2023-03-26T11:29:56.781Z,46.47
2023-03-26T11:32:15.793Z,46.94
2023-03-26T11:34:19.513Z,48.23
2023-03-26T11:36:16.718Z,49.01
2023-03-26T11:38:17.394Z,49.50
2023-03-26T11:40:19.166Z,49.61
2023-03-26T11:42:14.452Z,49.98
2023-03-26T11:44:18.998Z,50.36
2023-03-26T11:46:13.379Z,51.04
2023-03-26T11:48:30.622Z,50.85
2023-03-26T11:50:27.183Z,51.25
2023-03-26T11:52:18.928Z,51.28
2023-03-26T11:54:12.565Z,50.17
2023-03-26T11:56:18.823Z,49.24
2023-03-26T11:58:23.484Z,49.33
2023-03-26T12:00:21.324Z,49.82
2023-03-26T12:02:12.849Z,49.67
2023-03-26T12:04:08.119Z,50.45
2023-03-26T12:06:02.866Z,50.33
2023-03-26T12:07:59.233Z,49.99
2023-03-26T12:09:54.566Z,50.17
2023-03-26T12:11:48.213Z,50.67
2023-03-26T12:13:43.941Z,51.17
2023-03-26T12:15:43.189Z,49.50
2023-03-26T12:17:37.363Z,47.72
2023-03-26T12:19:36.491Z,48.22
2023-03-26T12:21:28.190Z,49.37
2023-03-26T12:23:51.070Z,47.69
2023-03-26T12:25:43.735Z,47.05
2023-03-26T12:27:38.069Z,48.31
2023-03-26T12:29:34.490Z,48.81
2023-03-26T12:31:26.611Z,47.78
2023-03-26T12:33:35.286Z,47.83
2023-03-26T12:35:30.310Z,47.74
2023-03-26T12:37:37.104Z,47.54
2023-03-26T12:40:10.485Z,47.59
2023-03-26T12:44:44.186Z,45.69
2023-03-26T12:44:52.813Z,45.32
2023-03-26T12:47:54.171Z,46.65
2023-03-26T12:49:03.401Z,46.59
2023-03-26T12:51:19.641Z,45.87
2023-03-26T12:53:26.728Z,46.90
2023-03-26T12:55:37.873Z,46.76
2023-03-26T12:57:39.137Z,46.81
2023-03-26T12:59:46.983Z,46.38
2023-03-26T13:01:45.939Z,46.17
2023-03-26T13:03:50.622Z,47.11
2023-03-26T13:05:59.588Z,46.64
2023-03-26T13:08:05.579Z,46.35
2023-03-26T13:10:12.670Z,46.29
2023-03-26T13:12:07.161Z,45.56
2023-03-26T13:14:07.901Z,44.96
2023-03-26T13:16:04.763Z,45.42
2023-03-26T13:18:18.564Z,45.62
2023-03-26T13:20:27.884Z,47.18
2023-03-26T13:22:51.111Z,45.15
2023-03-26T13:24:54.798Z,43.11
2023-03-26T13:27:08.342Z,41.06
2023-03-26T13:29:23.659Z,41.87
2023-03-26T13:31:15.634Z,41.34
2023-03-26T13:33:28.190Z,41.24
2023-03-26T13:36:00.688Z,40.63
2023-03-26T13:38:26.316Z,40.84
2023-03-26T13:40:50.158Z,41.33
2023-03-26T13:42:57.942Z,41.51
2023-03-26T13:45:04.682Z,42.39
2023-03-26T13:47:05.143Z,43.63
2023-03-26T13:49:13.789Z,43.61
2023-03-26T13:51:12.620Z,44.03
2023-03-26T13:53:19.453Z,44.17
2023-03-26T13:55:37.506Z,44.25
2023-03-26T13:57:35.521Z,44.34
2023-03-26T13:59:31.636Z,42.80
2023-03-26T14:01:34.810Z,43.39
2023-03-26T14:03:57.395Z,43.62
2023-03-26T14:05:52.696Z,44.68
2023-03-26T14:07:50.802Z,44.49
2023-03-26T14:10:10.827Z,45.62
2023-03-26T14:12:21.217Z,45.36
2023-03-26T14:14:18.383Z,45.85
2023-03-26T14:16:42.374Z,44.72
2023-03-26T14:18:43.529Z,45.70
2023-03-26T14:21:10.327Z,46.08
2023-03-26T14:23:35.083Z,46.42
2023-03-26T14:26:08.274Z,46.47
2023-03-26T14:28:48.485Z,47.00
2023-03-26T14:31:00.972Z,47.48
2023-03-26T14:33:12.784Z,46.04
2023-03-26T14:35:15.560Z,45.21
2023-03-26T14:37:18.969Z,45.27
2023-03-26T14:39:37.611Z,45.76
2023-03-26T14:42:02.865Z,46.47
2023-03-26T14:44:21.834Z,47.29
2023-03-26T14:46:39.080Z,47.92
2023-03-26T14:48:42.916Z,48.29
2023-03-26T14:50:42.829Z,48.10
2023-03-26T14:52:43.355Z,48.79
2023-03-26T14:54:39.171Z,50.22
2023-03-26T14:56:53.689Z,50.80
2023-03-26T14:59:21.672Z,50.24
2023-03-26T15:01:26.193Z,50.22
2023-03-26T15:03:40.198Z,49.01
2023-03-26T15:05:57.601Z,48.06
2023-03-26T15:08:09.073Z,48.73
2023-03-26T15:10:25.974Z,48.41
2023-03-26T15:12:29.955Z,48.66
2023-03-26T15:14:40.310Z,47.22
2023-03-26T15:16:45.629Z,47.84
2023-03-26T15:18:59.587Z,47.89
2023-03-26T15:21:06.889Z,48.12
2023-03-26T15:23:49.134Z,48.00
2023-03-26T15:25:51.564Z,48.55
2023-03-26T15:27:52.130Z,49.01
2023-03-26T15:29:58.998Z,49.08
2023-03-26T15:32:15.332Z,49.61
2023-03-26T15:34:13.257Z,49.67
2023-03-26T15:36:37.149Z,49.60
2023-03-26T15:38:43.324Z,49.47
2023-03-26T15:40:58.059Z,49.79
2023-03-26T15:42:58.574Z,51.32
2023-03-26T15:45:22.493Z,52.74
2023-03-26T15:47:29.253Z,54.01
2023-03-26T15:49:33.418Z,55.31
2023-03-26T15:51:46.524Z,55.32
2023-03-26T15:53:48.985Z,55.57
2023-03-26T15:56:04.062Z,56.10
2023-03-26T15:58:23.699Z,57.12
2023-03-26T16:00:26.629Z,57.11
2023-03-26T16:02:27.873Z,57.59
2023-03-26T16:04:50.704Z,57.66
2023-03-26T16:06:57.596Z,57.88
2023-03-26T16:09:03.456Z,57.30
2023-03-26T16:10:59.501Z,58.30
2023-03-26T16:13:14.052Z,58.58
2023-03-26T16:15:25.098Z,59.27
2023-03-26T16:17:20.741Z,59.32
2023-03-26T16:19:23.693Z,60.35
2023-03-26T16:21:31.723Z,59.94
2023-03-26T16:23:28.751Z,59.70
2023-03-26T16:25:34.784Z,60.05
2023-03-26T16:27:29.966Z,60.00
2023-03-26T16:29:26.941Z,60.15
2023-03-26T16:31:38.322Z,60.47
2023-03-26T16:33:44.771Z,60.49
2023-03-26T16:36:06.585Z,60.16
2023-03-26T16:38:15.016Z,60.10
2023-03-26T16:40:22.599Z,61.63
2023-03-26T16:42:35.020Z,61.56
2023-03-26T16:44:41.451Z,61.73
2023-03-26T16:47:08.364Z,62.31
2023-03-26T16:49:06.055Z,62.28
2023-03-26T16:51:09.880Z,62.73
2023-03-26T16:53:21.153Z,62.95
2023-03-26T16:55:15.512Z,63.38
2023-03-26T16:57:29.416Z,64.40
2023-03-26T16:59:43.093Z,62.79
2023-03-26T17:02:13.828Z,61.86
2023-03-26T17:04:12.991Z,62.17
2023-03-26T17:06:31.890Z,62.13
2023-03-26T17:08:35.570Z,61.87
2023-03-26T17:10:36.473Z,61.70
2023-03-26T17:15:06.047Z,62.00
2023-03-26T17:17:19.103Z,61.99
2023-03-26T17:19:22.651Z,62.08
2023-03-26T17:21:19.355Z,62.07
2023-03-26T17:23:28.627Z,62.08
2023-03-26T17:25:25.945Z,62.00
2023-03-26T17:27:28.328Z,61.94
2023-03-26T17:29:43.450Z,61.99
2023-03-26T17:31:56.901Z,62.40
2023-03-26T17:33:49.907Z,62.90
2023-03-26T17:35:47.206Z,63.76
2023-03-26T17:37:47.835Z,64.00
2023-03-26T17:39:39.610Z,63.68
2023-03-26T17:42:15.734Z,63.96
2023-03-26T17:44:42.279Z,64.10
2023-03-26T17:46:39.135Z,64.91
2023-03-26T17:48:35.571Z,64.57
2023-03-26T17:50:52.138Z,64.59
2023-03-26T17:53:02.084Z,64.09
2023-03-26T17:54:56.970Z,64.49
2023-03-26T17:56:50.515Z,64.96
2023-03-26T17:58:48.278Z,64.79
2023-03-26T18:00:45.885Z,64.68
2023-03-26T18:02:44.042Z,65.13
2023-03-26T18:04:40.494Z,64.99
2023-03-26T18:07:00.447Z,65.23
2023-03-26T18:09:12.839Z,65.54
2023-03-26T18:11:15.733Z,65.82
2023-03-26T18:13:07.296Z,66.17
2023-03-26T18:15:20.613Z,66.16
2023-03-26T18:17:12.567Z,66.24
2023-03-26T18:19:17.721Z,66.34
2023-03-26T18:21:15.575Z,66.41
2023-03-26T18:23:23.384Z,66.38
2023-03-26T18:25:27.321Z,66.75
2023-03-26T18:27:21.420Z,67.02
2023-03-26T18:29:23.985Z,66.95
2023-03-26T18:31:23.266Z,66.99
2023-03-26T18:33:16.304Z,67.06
2023-03-26T18:35:18.905Z,66.97
2023-03-26T18:37:34.318Z,66.90
2023-03-26T18:39:25.631Z,67.09
2023-03-26T18:41:32.354Z,67.07
2023-03-26T18:43:34.396Z,66.92
2023-03-26T18:45:35.175Z,67.17
2023-03-26T18:47:28.038Z,67.45
2023-03-26T18:49:20.619Z,67.21
2023-03-26T18:51:12.755Z,67.16
2023-03-26T18:53:07.511Z,67.14
2023-03-26T18:55:02.433Z,67.10
2023-03-26T18:56:59.449Z,67.29
2023-03-26T18:58:52.938Z,67.31
2023-03-26T19:00:44.677Z,67.18
2023-03-26T19:02:37.364Z,67.24
2023-03-26T19:04:33.391Z,67.30
2023-03-26T19:06:26.061Z,67.36
2023-03-26T19:08:18.158Z,67.48
2023-03-26T19:10:16.543Z,67.45
2023-03-26T19:12:16.650Z,67.73
2023-03-26T19:14:18.243Z,67.72
2023-03-26T19:16:22.569Z,67.89
2023-03-26T19:18:19.667Z,68.16
2023-03-26T19:20:17.235Z,68.05
2023-03-26T19:22:11.470Z,68.04
2023-03-26T19:24:04.234Z,68.18
2023-03-26T19:25:56.359Z,68.39
2023-03-26T19:27:50.370Z,68.46
2023-03-26T19:29:43.488Z,68.62
2023-03-26T19:31:36.202Z,68.59
2023-03-26T19:33:34.352Z,68.71
2023-03-26T19:35:26.276Z,68.89
2023-03-26T19:37:19.820Z,68.89
2023-03-26T19:39:12.899Z,69.16
2023-03-26T19:41:05.092Z,69.33
2023-03-26T19:42:59.681Z,69.62
2023-03-26T19:44:52.252Z,69.88
2023-03-26T19:51:25.832Z,69.87
2023-03-26T19:53:25.476Z,70.28
2023-03-26T19:55:24.196Z,70.13
2023-03-26T19:57:16.261Z,70.22
2023-03-26T19:59:08.187Z,70.39
2023-03-26T20:01:00.007Z,70.51
2023-03-26T20:02:51.515Z,70.45
2023-03-26T20:04:43.249Z,70.44
2023-03-26T20:06:43.318Z,70.80
2023-03-26T20:08:36.034Z,70.61
2023-03-26T20:10:28.038Z,70.65
2023-03-26T20:12:19.838Z,70.87
2023-03-26T20:14:21.562Z,70.99
2023-03-26T20:16:33.907Z,70.91
2023-03-26T20:18:25.711Z,71.22
2023-03-26T20:20:19.839Z,71.08
2023-03-26T20:22:16.113Z,71.09
2023-03-26T20:24:17.802Z,71.18
2023-03-26T20:26:15.354Z,71.57
2023-03-26T20:28:13.906Z,71.39
2023-03-26T20:30:07.024Z,71.53
2023-03-26T20:31:59.215Z,71.54
2023-03-26T20:33:56.494Z,71.34
2023-03-26T20:35:48.513Z,71.13
2023-03-26T20:37:40.035Z,71.12
2023-03-26T20:39:31.551Z,71.23
2023-03-26T20:41:24.222Z,71.08
2023-03-26T20:43:18.551Z,71.02
2023-03-26T20:45:20.153Z,70.85
2023-03-26T20:47:12.707Z,70.81
2023-03-26T20:49:06.661Z,70.66
2023-03-26T20:50:58.576Z,70.55
2023-03-26T20:52:50.520Z,70.48
2023-03-26T20:54:42.477Z,70.56
2023-03-26T20:56:37.717Z,70.34
2023-03-26T20:58:31.170Z,70.41
2023-03-26T21:00:24.371Z,70.53
2023-03-26T21:02:16.266Z,70.64
2023-03-26T21:04:07.760Z,70.65
2023-03-26T21:06:01.489Z,70.66
2023-03-26T21:07:58.393Z,70.85
2023-03-26T21:09:50.320Z,70.93
2023-03-26T21:12:02.541Z,71.04
2023-03-26T21:14:02.171Z,71.11
2023-03-26T21:15:54.687Z,71.43
2023-03-26T21:17:46.709Z,71.68
2023-03-26T21:19:39.380Z,71.78
2023-03-26T21:21:49.444Z,72.05
2023-03-26T21:23:46.821Z,72.46
2023-03-26T21:26:02.870Z,72.62
2023-03-26T21:28:14.695Z,72.84
2023-03-26T21:30:30.893Z,72.91
2023-03-26T21:32:23.465Z,72.89
2023-03-26T21:34:15.259Z,73.16
2023-03-26T21:36:07.659Z,73.25
2023-03-26T21:37:59.732Z,73.13
2023-03-26T21:39:51.562Z,73.05
2023-03-26T21:41:47.821Z,72.98
2023-03-26T21:43:39.588Z,72.78
2023-03-26T21:45:31.620Z,72.80
2023-03-26T21:47:23.704Z,72.74
2023-03-26T21:49:17.362Z,72.64
2023-03-26T21:51:14.891Z,72.63
2023-03-26T21:53:06.858Z,72.53
2023-03-26T21:55:00.855Z,72.57
2023-03-26T21:57:29.180Z,72.41
2023-03-26T21:59:51.747Z,72.35
2023-03-26T22:02:00.519Z,72.27
2023-03-26T22:04:16.622Z,72.43
2023-03-26T22:06:16.270Z,72.59
2023-03-26T22:08:21.959Z,72.53
2023-03-26T22:10:13.533Z,72.65
2023-03-26T22:12:05.888Z,72.59
2023-03-26T22:13:57.659Z,72.51
2023-03-26T22:15:49.466Z,72.73
2023-03-26T22:17:42.141Z,72.87
2023-03-26T22:19:34.784Z,72.77
2023-03-26T22:21:26.642Z,72.84
2023-03-26T22:23:18.900Z,72.96
2023-03-26T22:25:10.707Z,73.04
2023-03-26T22:27:02.566Z,73.00
2023-03-26T22:28:54.734Z,73.09
2023-03-26T22:30:46.718Z,73.02
2023-03-26T22:32:39.074Z,72.97
2023-03-26T22:34:31.825Z,73.03
2023-03-26T22:36:25.419Z,72.98
2023-03-26T22:38:17.964Z,72.99
2023-03-26T22:40:16.242Z,72.91
2023-03-26T22:42:08.099Z,72.97
2023-03-26T22:44:09.433Z,73.10
2023-03-26T22:46:06.569Z,73.18
2023-03-26T22:48:03.812Z,73.27
2023-03-26T22:49:57.352Z,73.51
2023-03-26T22:51:50.495Z,73.57
2023-03-26T22:53:41.964Z,73.40
2023-03-26T22:55:33.644Z,73.38
2023-03-26T22:57:25.846Z,73.31
2023-03-26T22:59:17.853Z,73.36
2023-03-26T23:01:17.705Z,73.52
2023-03-26T23:03:09.277Z,73.63
2023-03-26T23:05:01.374Z,73.67
2023-03-26T23:06:54.228Z,73.86
2023-03-26T23:08:46.353Z,73.89
2023-03-26T23:10:42.653Z,73.97
2023-03-26T23:12:34.221Z,73.95
2023-03-26T23:14:26.222Z,74.28
2023-03-26T23:16:18.049Z,74.43
2023-03-26T23:18:09.473Z,74.81
2023-03-26T23:20:06.187Z,74.82
2023-03-26T23:21:57.759Z,75.13
2023-03-26T23:23:51.749Z,75.49
2023-03-26T23:25:45.643Z,75.69
2023-03-26T23:27:37.860Z,75.97
2023-03-26T23:29:30.205Z,76.13
2023-03-26T23:31:21.988Z,76.43
2023-03-26T23:33:13.613Z,76.55
2023-03-26T23:35:05.371Z,76.72
2023-03-26T23:36:58.094Z,76.97
2023-03-26T23:38:51.535Z,77.02
2023-03-26T23:40:44.696Z,77.10
2023-03-26T23:42:49.614Z,77.46
2023-03-26T23:44:41.258Z,77.47
2023-03-26T23:46:35.421Z,77.68
2023-03-26T23:48:29.751Z,77.70
2023-03-26T23:50:21.021Z,77.88
2023-03-26T23:52:12.273Z,77.83
2023-03-26T23:54:05.323Z,77.86
2023-03-26T23:55:59.557Z,77.80
2023-03-26T23:57:51.745Z,77.80
2023-03-26T23:59:43.734Z,78.03
